sensor_id;sensor_type;location;lat;lon;timestamp;P1;durP1;ratioP1;P2;durP2;ratioP2
65879;SDS011;52661;51.364;6.054;2023-03-01T00:00:39;10.90;;;3.13;;
65879;SDS011;52661;51.364;6.054;2023-03-01T00:03:04;8.23;;;3.20;;
65879;SDS011;52661;51.364;6.054;2023-03-01T00:05:29;7.07;;;3.78;;
65879;SDS011;52661;51.364;6.054;2023-03-01T00:07:55;6.60;;;2.83;;
65879;SDS011;52661;51.364;6.054;2023-03-01T00:10:20;6.70;;;3.10;;
65879;SDS011;52661;51.364;6.054;2023-03-01T00:12:45;6.93;;;2.80;;
65879;SDS011;52661;51.364;6.054;2023-03-01T00:15:11;6.43;;;2.63;;
65879;SDS011;52661;51.364;6.054;2023-03-01T00:17:36;5.07;;;2.35;;
65879;SDS011;52661;51.364;6.054;2023-03-01T00:20:02;7.10;;;3.00;;
65879;SDS011;52661;51.364;6.054;2023-03-01T00:22:27;5.53;;;2.42;;
65879;SDS011;52661;51.364;6.054;2023-03-01T00:24:55;6.90;;;3.00;;
65879;SDS011;52661;51.364;6.054;2023-03-01T00:27:21;8.68;;;3.42;;
65879;SDS011;52661;51.364;6.054;2023-03-01T00:29:46;8.27;;;3.80;;
65879;SDS011;52661;51.364;6.054;2023-03-01T00:32:11;5.70;;;2.70;;
65879;SDS011;52661;51.364;6.054;2023-03-01T00:34:36;6.70;;;2.80;;
65879;SDS011;52661;51.364;6.054;2023-03-01T00:37:02;5.47;;;2.67;;
65879;SDS011;52661;51.364;6.054;2023-03-01T00:39:30;7.25;;;2.78;;
65879;SDS011;52661;51.364;6.054;2023-03-01T00:41:56;6.10;;;2.92;;
65879;SDS011;52661;51.364;6.054;2023-03-01T00:44:21;6.15;;;3.08;;
65879;SDS011;52661;51.364;6.054;2023-03-01T00:46:47;6.20;;;2.90;;
65879;SDS011;52661;51.364;6.054;2023-03-01T00:49:12;6.30;;;2.60;;
65879;SDS011;52661;51.364;6.054;2023-03-01T00:51:38;6.15;;;2.65;;
65879;SDS011;52661;51.364;6.054;2023-03-01T00:54:07;5.50;;;2.55;;
65879;SDS011;52661;51.364;6.054;2023-03-01T00:56:33;6.88;;;2.95;;
65879;SDS011;52661;51.364;6.054;2023-03-01T00:58:59;7.68;;;2.85;;
65879;SDS011;52661;51.364;6.054;2023-03-01T01:01:26;7.15;;;2.70;;
65879;SDS011;52661;51.364;6.054;2023-03-01T01:03:57;6.72;;;3.00;;
65879;SDS011;52661;51.364;6.054;2023-03-01T01:06:37;6.30;;;3.10;;
65879;SDS011;52661;51.364;6.054;2023-03-01T01:09:12;6.35;;;2.40;;
65879;SDS011;52661;51.364;6.054;2023-03-01T01:11:47;7.80;;;2.85;;
65879;SDS011;52661;51.364;6.054;2023-03-01T01:14:14;7.40;;;2.90;;
65879;SDS011;52661;51.364;6.054;2023-03-01T01:16:40;5.22;;;2.63;;
65879;SDS011;52661;51.364;6.054;2023-03-01T01:19:05;6.40;;;3.17;;
65879;SDS011;52661;51.364;6.054;2023-03-01T01:21:31;9.35;;;3.28;;
65879;SDS011;52661;51.364;6.054;2023-03-01T01:23:57;5.13;;;2.83;;
65879;SDS011;52661;51.364;6.054;2023-03-01T01:26:24;8.90;;;2.85;;
65879;SDS011;52661;51.364;6.054;2023-03-01T01:28:52;11.02;;;3.30;;
65879;SDS011;52661;51.364;6.054;2023-03-01T01:31:18;9.27;;;3.30;;
65879;SDS011;52661;51.364;6.054;2023-03-01T01:33:44;5.15;;;2.55;;
65879;SDS011;52661;51.364;6.054;2023-03-01T01:36:10;7.28;;;3.35;;
65879;SDS011;52661;51.364;6.054;2023-03-01T01:38:36;7.30;;;3.25;;
65879;SDS011;52661;51.364;6.054;2023-03-01T01:41:02;6.72;;;2.72;;
65879;SDS011;52661;51.364;6.054;2023-03-01T01:43:29;8.15;;;3.10;;
65879;SDS011;52661;51.364;6.054;2023-03-01T01:46:01;9.32;;;3.30;;
65879;SDS011;52661;51.364;6.054;2023-03-01T01:51:17;6.25;;;3.63;;
65879;SDS011;52661;51.364;6.054;2023-03-01T01:53:45;8.63;;;3.17;;
65879;SDS011;52661;51.364;6.054;2023-03-01T01:56:14;11.07;;;2.45;;
65879;SDS011;52661;51.364;6.054;2023-03-01T01:58:42;6.32;;;3.17;;
65879;SDS011;52661;51.364;6.054;2023-03-01T02:01:08;8.43;;;2.80;;
65879;SDS011;52661;51.364;6.054;2023-03-01T02:03:34;8.32;;;3.38;;
65879;SDS011;52661;51.364;6.054;2023-03-01T02:08:28;7.25;;;2.65;;
65879;SDS011;52661;51.364;6.054;2023-03-01T02:10:57;8.63;;;3.13;;
65879;SDS011;52661;51.364;6.054;2023-03-01T02:13:29;6.35;;;2.42;;
65879;SDS011;52661;51.364;6.054;2023-03-01T02:15:56;4.90;;;2.33;;
65879;SDS011;52661;51.364;6.054;2023-03-01T02:18:22;7.90;;;3.28;;
65879;SDS011;52661;51.364;6.054;2023-03-01T02:23:27;7.07;;;2.75;;
65879;SDS011;52661;51.364;6.054;2023-03-01T02:25:55;5.80;;;2.38;;
65879;SDS011;52661;51.364;6.054;2023-03-01T02:28:31;11.07;;;2.85;;
65879;SDS011;52661;51.364;6.054;2023-03-01T02:30:58;6.15;;;3.47;;
65879;SDS011;52661;51.364;6.054;2023-03-01T02:33:42;8.52;;;3.42;;
65879;SDS011;52661;51.364;6.054;2023-03-01T02:36:12;7.53;;;3.33;;
65879;SDS011;52661;51.364;6.054;2023-03-01T02:38:42;6.93;;;2.90;;
65879;SDS011;52661;51.364;6.054;2023-03-01T02:41:07;5.60;;;2.85;;
65879;SDS011;52661;51.364;6.054;2023-03-01T02:43:35;6.88;;;3.38;;
65879;SDS011;52661;51.364;6.054;2023-03-01T02:46:03;6.80;;;3.15;;
65879;SDS011;52661;51.364;6.054;2023-03-01T02:48:50;7.22;;;2.17;;
65879;SDS011;52661;51.364;6.054;2023-03-01T02:54:08;8.45;;;2.83;;
65879;SDS011;52661;51.364;6.054;2023-03-01T02:56:43;6.65;;;2.75;;
65879;SDS011;52661;51.364;6.054;2023-03-01T02:59:13;6.15;;;2.30;;
65879;SDS011;52661;51.364;6.054;2023-03-01T03:01:38;6.68;;;3.55;;
65879;SDS011;52661;51.364;6.054;2023-03-01T03:04:05;6.93;;;2.90;;
65879;SDS011;52661;51.364;6.054;2023-03-01T03:06:31;6.07;;;2.78;;
65879;SDS011;52661;51.364;6.054;2023-03-01T03:08:57;7.90;;;3.45;;
65879;SDS011;52661;51.364;6.054;2023-03-01T03:11:22;8.77;;;3.05;;
65879;SDS011;52661;51.364;6.054;2023-03-01T03:13:48;4.35;;;2.28;;
65879;SDS011;52661;51.364;6.054;2023-03-01T03:16:14;7.83;;;3.13;;
65879;SDS011;52661;51.364;6.054;2023-03-01T03:18:39;7.55;;;3.60;;
65879;SDS011;52661;51.364;6.054;2023-03-01T03:21:08;8.30;;;2.85;;
65879;SDS011;52661;51.364;6.054;2023-03-01T03:23:35;7.05;;;3.17;;
65879;SDS011;52661;51.364;6.054;2023-03-01T03:26:01;10.98;;;3.70;;
65879;SDS011;52661;51.364;6.054;2023-03-01T03:28:29;6.05;;;2.58;;
65879;SDS011;52661;51.364;6.054;2023-03-01T03:30:55;5.18;;;2.65;;
65879;SDS011;52661;51.364;6.054;2023-03-01T03:33:21;10.13;;;3.53;;
65879;SDS011;52661;51.364;6.054;2023-03-01T03:35:47;9.68;;;3.55;;
65879;SDS011;52661;51.364;6.054;2023-03-01T03:38:15;8.23;;;3.25;;
65879;SDS011;52661;51.364;6.054;2023-03-01T03:40:46;7.65;;;3.10;;
65879;SDS011;52661;51.364;6.054;2023-03-01T03:43:17;7.30;;;2.92;;
65879;SDS011;52661;51.364;6.054;2023-03-01T03:45:47;8.65;;;3.63;;
65879;SDS011;52661;51.364;6.054;2023-03-01T03:48:14;7.50;;;3.30;;
65879;SDS011;52661;51.364;6.054;2023-03-01T03:50:40;7.85;;;3.45;;
65879;SDS011;52661;51.364;6.054;2023-03-01T03:53:07;8.27;;;2.55;;
65879;SDS011;52661;51.364;6.054;2023-03-01T03:55:37;9.50;;;3.17;;
65879;SDS011;52661;51.364;6.054;2023-03-01T03:58:04;8.10;;;3.25;;
65879;SDS011;52661;51.364;6.054;2023-03-01T04:00:35;7.65;;;2.75;;
65879;SDS011;52661;51.364;6.054;2023-03-01T04:03:02;6.82;;;3.33;;
65879;SDS011;52661;51.364;6.054;2023-03-01T04:05:28;10.73;;;3.83;;
65879;SDS011;52661;51.364;6.054;2023-03-01T04:07:54;11.30;;;3.22;;
65879;SDS011;52661;51.364;6.054;2023-03-01T04:10:26;6.57;;;3.20;;
65879;SDS011;52661;51.364;6.054;2023-03-01T04:12:52;6.20;;;3.13;;
65879;SDS011;52661;51.364;6.054;2023-03-01T04:15:17;9.73;;;2.93;;
65879;SDS011;52661;51.364;6.054;2023-03-01T04:17:44;7.68;;;2.70;;
65879;SDS011;52661;51.364;6.054;2023-03-01T04:20:12;11.50;;;3.33;;
65879;SDS011;52661;51.364;6.054;2023-03-01T04:22:49;7.90;;;2.80;;
65879;SDS011;52661;51.364;6.054;2023-03-01T04:25:16;8.85;;;3.63;;
65879;SDS011;52661;51.364;6.054;2023-03-01T04:27:41;10.23;;;3.35;;
65879;SDS011;52661;51.364;6.054;2023-03-01T04:30:06;9.23;;;3.17;;
65879;SDS011;52661;51.364;6.054;2023-03-01T04:32:34;7.63;;;3.13;;
65879;SDS011;52661;51.364;6.054;2023-03-01T04:34:59;6.73;;;3.13;;
65879;SDS011;52661;51.364;6.054;2023-03-01T04:37:25;10.13;;;3.42;;
65879;SDS011;52661;51.364;6.054;2023-03-01T04:39:50;8.40;;;3.10;;
65879;SDS011;52661;51.364;6.054;2023-03-01T04:42:16;5.93;;;3.30;;
65879;SDS011;52661;51.364;6.054;2023-03-01T04:44:42;7.38;;;3.33;;
65879;SDS011;52661;51.364;6.054;2023-03-01T04:47:08;6.32;;;3.28;;
65879;SDS011;52661;51.364;6.054;2023-03-01T04:49:34;7.47;;;2.70;;
65879;SDS011;52661;51.364;6.054;2023-03-01T04:51:59;8.80;;;3.40;;
65879;SDS011;52661;51.364;6.054;2023-03-01T04:54:33;10.00;;;3.15;;
65879;SDS011;52661;51.364;6.054;2023-03-01T04:57:00;7.88;;;3.42;;
65879;SDS011;52661;51.364;6.054;2023-03-01T04:59:26;6.85;;;2.47;;
65879;SDS011;52661;51.364;6.054;2023-03-01T05:01:52;6.45;;;3.03;;
65879;SDS011;52661;51.364;6.054;2023-03-01T05:04:22;8.25;;;3.35;;
65879;SDS011;52661;51.364;6.054;2023-03-01T05:06:48;8.48;;;3.05;;
65879;SDS011;52661;51.364;6.054;2023-03-01T05:09:14;9.45;;;3.58;;
65879;SDS011;52661;51.364;6.054;2023-03-01T05:11:39;8.20;;;3.42;;
65879;SDS011;52661;51.364;6.054;2023-03-01T05:14:05;6.60;;;2.73;;
65879;SDS011;52661;51.364;6.054;2023-03-01T05:16:31;7.43;;;3.00;;
65879;SDS011;52661;51.364;6.054;2023-03-01T05:18:58;7.07;;;2.53;;
65879;SDS011;52661;51.364;6.054;2023-03-01T05:21:23;6.45;;;3.05;;
65879;SDS011;52661;51.364;6.054;2023-03-01T05:23:49;9.13;;;4.43;;
65879;SDS011;52661;51.364;6.054;2023-03-01T05:26:15;6.38;;;2.65;;
65879;SDS011;52661;51.364;6.054;2023-03-01T05:28:42;7.63;;;3.05;;
65879;SDS011;52661;51.364;6.054;2023-03-01T05:31:08;8.10;;;2.70;;
65879;SDS011;52661;51.364;6.054;2023-03-01T05:33:37;8.23;;;3.03;;
65879;SDS011;52661;51.364;6.054;2023-03-01T05:36:04;6.57;;;3.03;;
65879;SDS011;52661;51.364;6.054;2023-03-01T05:38:31;6.82;;;3.10;;
65879;SDS011;52661;51.364;6.054;2023-03-01T05:40:56;8.23;;;2.83;;
65879;SDS011;52661;51.364;6.054;2023-03-01T05:43:22;6.78;;;2.80;;
65879;SDS011;52661;51.364;6.054;2023-03-01T05:45:47;8.80;;;3.47;;
65879;SDS011;52661;51.364;6.054;2023-03-01T05:48:13;10.43;;;3.17;;
65879;SDS011;52661;51.364;6.054;2023-03-01T05:50:43;6.35;;;2.95;;
65879;SDS011;52661;51.364;6.054;2023-03-01T05:53:13;6.78;;;2.90;;
65879;SDS011;52661;51.364;6.054;2023-03-01T05:55:44;8.68;;;3.72;;
65879;SDS011;52661;51.364;6.054;2023-03-01T05:58:12;6.00;;;2.38;;
65879;SDS011;52661;51.364;6.054;2023-03-01T06:00:39;8.00;;;3.38;;
65879;SDS011;52661;51.364;6.054;2023-03-01T06:03:05;9.57;;;3.38;;
65879;SDS011;52661;51.364;6.054;2023-03-01T06:05:30;7.53;;;3.57;;
65879;SDS011;52661;51.364;6.054;2023-03-01T06:07:58;8.35;;;3.15;;
65879;SDS011;52661;51.364;6.054;2023-03-01T06:12:50;5.73;;;2.20;;
65879;SDS011;52661;51.364;6.054;2023-03-01T06:15:15;9.30;;;3.03;;
65879;SDS011;52661;51.364;6.054;2023-03-01T06:17:42;10.52;;;3.75;;
65879;SDS011;52661;51.364;6.054;2023-03-01T06:20:10;13.10;;;4.63;;
65879;SDS011;52661;51.364;6.054;2023-03-01T06:22:38;16.42;;;5.10;;
65879;SDS011;52661;51.364;6.054;2023-03-01T06:25:04;9.77;;;4.97;;
65879;SDS011;52661;51.364;6.054;2023-03-01T06:27:30;19.00;;;5.65;;
65879;SDS011;52661;51.364;6.054;2023-03-01T06:29:55;13.90;;;5.03;;
65879;SDS011;52661;51.364;6.054;2023-03-01T06:32:20;10.70;;;4.47;;
65879;SDS011;52661;51.364;6.054;2023-03-01T06:34:46;9.30;;;3.85;;
65879;SDS011;52661;51.364;6.054;2023-03-01T06:37:11;10.67;;;3.20;;
65879;SDS011;52661;51.364;6.054;2023-03-01T06:39:36;9.25;;;3.63;;
65879;SDS011;52661;51.364;6.054;2023-03-01T06:42:02;8.53;;;3.33;;
65879;SDS011;52661;51.364;6.054;2023-03-01T06:44:27;8.93;;;3.47;;
65879;SDS011;52661;51.364;6.054;2023-03-01T06:46:53;9.65;;;3.80;;
65879;SDS011;52661;51.364;6.054;2023-03-01T06:49:18;8.40;;;4.15;;
65879;SDS011;52661;51.364;6.054;2023-03-01T06:51:44;7.85;;;3.38;;
65879;SDS011;52661;51.364;6.054;2023-03-01T06:54:10;9.00;;;3.22;;
65879;SDS011;52661;51.364;6.054;2023-03-01T06:56:35;9.93;;;4.00;;
65879;SDS011;52661;51.364;6.054;2023-03-01T06:59:01;8.05;;;3.60;;
65879;SDS011;52661;51.364;6.054;2023-03-01T07:01:27;7.63;;;3.60;;
65879;SDS011;52661;51.364;6.054;2023-03-01T07:03:53;10.00;;;3.92;;
65879;SDS011;52661;51.364;6.054;2023-03-01T07:06:19;12.52;;;3.50;;
65879;SDS011;52661;51.364;6.054;2023-03-01T07:08:44;10.43;;;3.63;;
65879;SDS011;52661;51.364;6.054;2023-03-01T07:11:09;10.43;;;3.73;;
65879;SDS011;52661;51.364;6.054;2023-03-01T07:13:35;6.50;;;2.67;;
65879;SDS011;52661;51.364;6.054;2023-03-01T07:16:00;8.20;;;2.80;;
65879;SDS011;52661;51.364;6.054;2023-03-01T07:18:25;8.53;;;3.53;;
65879;SDS011;52661;51.364;6.054;2023-03-01T07:20:51;8.57;;;3.67;;
65879;SDS011;52661;51.364;6.054;2023-03-01T07:23:16;9.98;;;3.55;;
65879;SDS011;52661;51.364;6.054;2023-03-01T07:25:41;9.37;;;3.23;;
65879;SDS011;52661;51.364;6.054;2023-03-01T07:28:06;8.67;;;3.20;;
65879;SDS011;52661;51.364;6.054;2023-03-01T07:30:32;11.40;;;3.38;;
65879;SDS011;52661;51.364;6.054;2023-03-01T07:32:57;10.15;;;3.47;;
65879;SDS011;52661;51.364;6.054;2023-03-01T07:35:23;8.73;;;3.38;;
65879;SDS011;52661;51.364;6.054;2023-03-01T07:37:51;9.10;;;4.65;;
65879;SDS011;52661;51.364;6.054;2023-03-01T07:40:17;8.90;;;4.00;;
65879;SDS011;52661;51.364;6.054;2023-03-01T07:42:42;8.80;;;3.42;;
65879;SDS011;52661;51.364;6.054;2023-03-01T07:45:08;10.00;;;3.28;;
65879;SDS011;52661;51.364;6.054;2023-03-01T07:47:34;8.80;;;3.65;;
65879;SDS011;52661;51.364;6.054;2023-03-01T07:49:59;9.23;;;3.77;;
65879;SDS011;52661;51.364;6.054;2023-03-01T07:52:26;10.20;;;3.50;;
65879;SDS011;52661;51.364;6.054;2023-03-01T07:54:51;10.18;;;3.75;;
65879;SDS011;52661;51.364;6.054;2023-03-01T07:57:16;10.00;;;3.33;;
65879;SDS011;52661;51.364;6.054;2023-03-01T07:59:42;7.83;;;3.27;;
65879;SDS011;52661;51.364;6.054;2023-03-01T08:02:08;8.70;;;3.15;;
65879;SDS011;52661;51.364;6.054;2023-03-01T08:04:34;9.82;;;3.22;;
65879;SDS011;52661;51.364;6.054;2023-03-01T08:06:59;7.60;;;3.70;;
65879;SDS011;52661;51.364;6.054;2023-03-01T08:09:25;9.93;;;4.03;;
65879;SDS011;52661;51.364;6.054;2023-03-01T08:11:51;10.30;;;3.33;;
65879;SDS011;52661;51.364;6.054;2023-03-01T08:14:16;8.05;;;3.67;;
65879;SDS011;52661;51.364;6.054;2023-03-01T08:16:41;9.40;;;3.87;;
65879;SDS011;52661;51.364;6.054;2023-03-01T08:19:08;8.70;;;3.05;;
65879;SDS011;52661;51.364;6.054;2023-03-01T08:21:35;8.48;;;3.55;;
65879;SDS011;52661;51.364;6.054;2023-03-01T08:24:01;7.20;;;3.25;;
65879;SDS011;52661;51.364;6.054;2023-03-01T08:26:28;8.90;;;3.50;;
65879;SDS011;52661;51.364;6.054;2023-03-01T08:28:53;6.32;;;3.08;;
65879;SDS011;52661;51.364;6.054;2023-03-01T08:31:20;13.23;;;3.58;;
65879;SDS011;52661;51.364;6.054;2023-03-01T08:33:55;7.93;;;3.75;;
65879;SDS011;52661;51.364;6.054;2023-03-01T08:36:26;12.85;;;3.92;;
65879;SDS011;52661;51.364;6.054;2023-03-01T08:38:53;8.57;;;3.00;;
65879;SDS011;52661;51.364;6.054;2023-03-01T08:41:19;9.38;;;4.22;;
65879;SDS011;52661;51.364;6.054;2023-03-01T08:43:44;6.10;;;2.28;;
65879;SDS011;52661;51.364;6.054;2023-03-01T08:46:10;10.17;;;4.73;;
65879;SDS011;52661;51.364;6.054;2023-03-01T08:48:35;9.30;;;4.20;;
65879;SDS011;52661;51.364;6.054;2023-03-01T08:51:14;8.30;;;3.50;;
65879;SDS011;52661;51.364;6.054;2023-03-01T08:53:40;10.15;;;3.60;;
65879;SDS011;52661;51.364;6.054;2023-03-01T08:56:07;8.43;;;3.13;;
65879;SDS011;52661;51.364;6.054;2023-03-01T08:58:33;10.85;;;3.58;;
65879;SDS011;52661;51.364;6.054;2023-03-01T09:00:58;9.15;;;3.05;;
65879;SDS011;52661;51.364;6.054;2023-03-01T09:03:24;8.32;;;3.15;;
65879;SDS011;52661;51.364;6.054;2023-03-01T09:05:51;8.23;;;2.85;;
65879;SDS011;52661;51.364;6.054;2023-03-01T09:08:17;7.85;;;4.03;;
65879;SDS011;52661;51.364;6.054;2023-03-01T09:10:43;8.25;;;3.42;;
65879;SDS011;52661;51.364;6.054;2023-03-01T09:13:09;6.65;;;2.78;;
65879;SDS011;52661;51.364;6.054;2023-03-01T09:15:36;11.15;;;3.88;;
65879;SDS011;52661;51.364;6.054;2023-03-01T09:18:02;8.25;;;3.97;;
65879;SDS011;52661;51.364;6.054;2023-03-01T09:20:27;7.28;;;3.40;;
65879;SDS011;52661;51.364;6.054;2023-03-01T09:22:53;8.60;;;3.95;;
65879;SDS011;52661;51.364;6.054;2023-03-01T09:25:18;9.57;;;3.45;;
65879;SDS011;52661;51.364;6.054;2023-03-01T09:27:43;8.63;;;4.10;;
65879;SDS011;52661;51.364;6.054;2023-03-01T09:30:09;13.10;;;4.97;;
65879;SDS011;52661;51.364;6.054;2023-03-01T09:32:35;10.40;;;4.30;;
65879;SDS011;52661;51.364;6.054;2023-03-01T09:35:00;14.43;;;4.07;;
65879;SDS011;52661;51.364;6.054;2023-03-01T09:37:28;10.02;;;4.15;;
65879;SDS011;52661;51.364;6.054;2023-03-01T09:39:54;6.68;;;3.00;;
65879;SDS011;52661;51.364;6.054;2023-03-01T09:42:19;8.80;;;3.53;;
65879;SDS011;52661;51.364;6.054;2023-03-01T09:47:31;13.88;;;3.90;;
65879;SDS011;52661;51.364;6.054;2023-03-01T09:50:33;11.82;;;4.53;;
65879;SDS011;52661;51.364;6.054;2023-03-01T10:04:23;14.43;;;5.20;;
65879;SDS011;52661;51.364;6.054;2023-03-01T10:09:33;9.60;;;4.32;;
65879;SDS011;52661;51.364;6.054;2023-03-01T10:11:59;11.98;;;4.53;;
65879;SDS011;52661;51.364;6.054;2023-03-01T10:14:29;13.32;;;4.47;;
65879;SDS011;52661;51.364;6.054;2023-03-01T10:20:10;10.52;;;4.55;;
65879;SDS011;52661;51.364;6.054;2023-03-01T10:22:41;7.20;;;3.72;;
65879;SDS011;52661;51.364;6.054;2023-03-01T10:25:08;10.05;;;4.20;;
65879;SDS011;52661;51.364;6.054;2023-03-01T10:27:55;9.95;;;4.15;;
65879;SDS011;52661;51.364;6.054;2023-03-01T10:30:37;7.75;;;3.42;;
65879;SDS011;52661;51.364;6.054;2023-03-01T10:33:08;11.80;;;5.00;;
65879;SDS011;52661;51.364;6.054;2023-03-01T10:35:42;10.93;;;4.70;;
65879;SDS011;52661;51.364;6.054;2023-03-01T10:38:09;12.15;;;4.70;;
65879;SDS011;52661;51.364;6.054;2023-03-01T10:40:36;12.48;;;4.50;;
65879;SDS011;52661;51.364;6.054;2023-03-01T10:43:16;10.75;;;4.45;;
65879;SDS011;52661;51.364;6.054;2023-03-01T10:45:42;9.00;;;4.03;;
65879;SDS011;52661;51.364;6.054;2023-03-01T10:50:33;11.73;;;4.33;;
65879;SDS011;52661;51.364;6.054;2023-03-01T10:53:02;7.30;;;4.07;;
65879;SDS011;52661;51.364;6.054;2023-03-01T10:55:36;8.60;;;3.90;;
65879;SDS011;52661;51.364;6.054;2023-03-01T10:58:36;8.93;;;3.70;;
65879;SDS011;52661;51.364;6.054;2023-03-01T11:01:02;10.52;;;3.65;;
65879;SDS011;52661;51.364;6.054;2023-03-01T11:03:34;7.82;;;4.22;;
65879;SDS011;52661;51.364;6.054;2023-03-01T11:08:43;9.00;;;4.10;;
65879;SDS011;52661;51.364;6.054;2023-03-01T11:13:50;7.88;;;3.45;;
65879;SDS011;52661;51.364;6.054;2023-03-01T11:16:22;12.30;;;4.47;;
65879;SDS011;52661;51.364;6.054;2023-03-01T11:19:00;9.75;;;4.25;;
65879;SDS011;52661;51.364;6.054;2023-03-01T11:21:26;7.50;;;3.35;;
65879;SDS011;52661;51.364;6.054;2023-03-01T11:23:56;8.18;;;3.75;;
65879;SDS011;52661;51.364;6.054;2023-03-01T11:26:24;8.95;;;4.30;;
65879;SDS011;52661;51.364;6.054;2023-03-01T11:28:51;12.45;;;4.10;;
65879;SDS011;52661;51.364;6.054;2023-03-01T11:31:21;8.82;;;3.72;;
65879;SDS011;52661;51.364;6.054;2023-03-01T11:36:41;11.13;;;4.43;;
65879;SDS011;52661;51.364;6.054;2023-03-01T11:44:40;9.85;;;4.65;;
65879;SDS011;52661;51.364;6.054;2023-03-01T11:47:14;10.65;;;4.38;;
65879;SDS011;52661;51.364;6.054;2023-03-01T12:06:18;10.32;;;4.97;;
65879;SDS011;52661;51.364;6.054;2023-03-01T12:08:58;13.20;;;4.60;;
65879;SDS011;52661;51.364;6.054;2023-03-01T12:35:40;10.32;;;4.45;;
65879;SDS011;52661;51.364;6.054;2023-03-01T12:41:10;11.13;;;4.00;;
65879;SDS011;52661;51.364;6.054;2023-03-01T12:46:41;8.10;;;4.10;;
65879;SDS011;52661;51.364;6.054;2023-03-01T12:49:15;8.38;;;4.28;;
65879;SDS011;52661;51.364;6.054;2023-03-01T12:51:47;7.95;;;3.40;;
65879;SDS011;52661;51.364;6.054;2023-03-01T12:54:27;4.07;;;2.35;;
65879;SDS011;52661;51.364;6.054;2023-03-01T12:56:56;6.57;;;3.53;;
65879;SDS011;52661;51.364;6.054;2023-03-01T13:05:29;8.32;;;3.50;;
65879;SDS011;52661;51.364;6.054;2023-03-01T13:08:20;7.53;;;2.70;;
65879;SDS011;52661;51.364;6.054;2023-03-01T13:11:03;7.13;;;2.70;;
65879;SDS011;52661;51.364;6.054;2023-03-01T13:13:31;6.90;;;3.35;;
65879;SDS011;52661;51.364;6.054;2023-03-01T13:15:57;5.60;;;2.88;;
65879;SDS011;52661;51.364;6.054;2023-03-01T13:20:49;5.65;;;2.38;;
65879;SDS011;52661;51.364;6.054;2023-03-01T13:33:54;8.05;;;3.83;;
65879;SDS011;52661;51.364;6.054;2023-03-01T13:46:57;6.95;;;3.03;;
65879;SDS011;52661;51.364;6.054;2023-03-01T13:49:51;6.35;;;3.28;;
65879;SDS011;52661;51.364;6.054;2023-03-01T13:52:38;6.97;;;2.97;;
65879;SDS011;52661;51.364;6.054;2023-03-01T13:55:31;5.68;;;2.78;;
65879;SDS011;52661;51.364;6.054;2023-03-01T13:58:03;7.22;;;3.17;;
65879;SDS011;52661;51.364;6.054;2023-03-01T14:00:40;6.70;;;2.95;;
65879;SDS011;52661;51.364;6.054;2023-03-01T14:05:35;5.20;;;2.55;;
65879;SDS011;52661;51.364;6.054;2023-03-01T14:08:01;6.28;;;2.67;;
65879;SDS011;52661;51.364;6.054;2023-03-01T14:10:32;6.05;;;3.17;;
65879;SDS011;52661;51.364;6.054;2023-03-01T14:13:10;5.55;;;2.58;;
65879;SDS011;52661;51.364;6.054;2023-03-01T14:15:59;7.13;;;2.95;;
65879;SDS011;52661;51.364;6.054;2023-03-01T14:18:42;5.35;;;2.83;;
65879;SDS011;52661;51.364;6.054;2023-03-01T14:21:17;5.97;;;3.15;;
65879;SDS011;52661;51.364;6.054;2023-03-01T14:23:42;5.53;;;2.80;;
65879;SDS011;52661;51.364;6.054;2023-03-01T14:26:08;6.60;;;2.88;;
65879;SDS011;52661;51.364;6.054;2023-03-01T14:28:34;10.02;;;3.75;;
65879;SDS011;52661;51.364;6.054;2023-03-01T14:31:22;9.65;;;3.22;;
65879;SDS011;52661;51.364;6.054;2023-03-01T14:34:19;8.10;;;3.28;;
65879;SDS011;52661;51.364;6.054;2023-03-01T14:36:47;9.20;;;3.33;;
65879;SDS011;52661;51.364;6.054;2023-03-01T14:39:17;7.20;;;3.33;;
65879;SDS011;52661;51.364;6.054;2023-03-01T14:41:48;8.15;;;3.25;;
65879;SDS011;52661;51.364;6.054;2023-03-01T14:44:16;7.63;;;3.17;;
65879;SDS011;52661;51.364;6.054;2023-03-01T14:46:51;7.90;;;3.50;;
65879;SDS011;52661;51.364;6.054;2023-03-01T14:49:20;6.57;;;3.17;;
65879;SDS011;52661;51.364;6.054;2023-03-01T14:51:57;8.55;;;3.55;;
65879;SDS011;52661;51.364;6.054;2023-03-01T14:54:28;8.75;;;3.45;;
65879;SDS011;52661;51.364;6.054;2023-03-01T14:57:00;7.13;;;3.10;;
65879;SDS011;52661;51.364;6.054;2023-03-01T14:59:26;6.70;;;3.15;;
65879;SDS011;52661;51.364;6.054;2023-03-01T15:01:54;6.18;;;2.28;;
65879;SDS011;52661;51.364;6.054;2023-03-01T15:04:22;10.88;;;3.67;;
65879;SDS011;52661;51.364;6.054;2023-03-01T15:06:52;11.57;;;4.45;;
65879;SDS011;52661;51.364;6.054;2023-03-01T15:09:19;7.95;;;3.17;;
65879;SDS011;52661;51.364;6.054;2023-03-01T15:11:46;6.57;;;3.13;;
65879;SDS011;52661;51.364;6.054;2023-03-01T15:16:52;9.38;;;3.13;;
65879;SDS011;52661;51.364;6.054;2023-03-01T15:19:17;8.55;;;3.83;;
65879;SDS011;52661;51.364;6.054;2023-03-01T15:21:44;8.10;;;3.35;;
65879;SDS011;52661;51.364;6.054;2023-03-01T15:26:47;9.70;;;3.03;;
65879;SDS011;52661;51.364;6.054;2023-03-01T15:29:20;7.30;;;3.35;;
65879;SDS011;52661;51.364;6.054;2023-03-01T15:34:24;9.02;;;3.15;;
65879;SDS011;52661;51.364;6.054;2023-03-01T15:36:50;7.63;;;3.13;;
65879;SDS011;52661;51.364;6.054;2023-03-01T15:39:37;7.13;;;2.88;;
65879;SDS011;52661;51.364;6.054;2023-03-01T15:42:12;7.85;;;3.63;;
65879;SDS011;52661;51.364;6.054;2023-03-01T15:47:39;8.15;;;3.15;;
65879;SDS011;52661;51.364;6.054;2023-03-01T15:50:11;7.95;;;3.47;;
65879;SDS011;52661;51.364;6.054;2023-03-01T15:52:42;9.45;;;3.67;;
65879;SDS011;52661;51.364;6.054;2023-03-01T15:55:15;8.13;;;3.70;;
65879;SDS011;52661;51.364;6.054;2023-03-01T15:57:48;8.75;;;3.97;;
65879;SDS011;52661;51.364;6.054;2023-03-01T16:00:15;9.13;;;3.97;;
65879;SDS011;52661;51.364;6.054;2023-03-01T16:02:42;9.38;;;3.70;;
65879;SDS011;52661;51.364;6.054;2023-03-01T16:05:21;8.68;;;3.67;;
65879;SDS011;52661;51.364;6.054;2023-03-01T16:07:48;9.13;;;4.00;;
65879;SDS011;52661;51.364;6.054;2023-03-01T16:10:14;9.93;;;4.15;;
65879;SDS011;52661;51.364;6.054;2023-03-01T16:12:40;10.30;;;4.25;;
65879;SDS011;52661;51.364;6.054;2023-03-01T16:15:12;9.73;;;4.10;;
65879;SDS011;52661;51.364;6.054;2023-03-01T16:17:41;9.25;;;3.80;;
65879;SDS011;52661;51.364;6.054;2023-03-01T16:20:07;8.73;;;3.63;;
65879;SDS011;52661;51.364;6.054;2023-03-01T16:22:33;10.00;;;3.88;;
65879;SDS011;52661;51.364;6.054;2023-03-01T16:24:58;9.17;;;4.13;;
65879;SDS011;52661;51.364;6.054;2023-03-01T16:27:23;9.40;;;4.10;;
65879;SDS011;52661;51.364;6.054;2023-03-01T16:29:49;10.10;;;3.87;;
65879;SDS011;52661;51.364;6.054;2023-03-01T16:32:14;9.35;;;4.38;;
65879;SDS011;52661;51.364;6.054;2023-03-01T16:34:39;8.93;;;4.25;;
65879;SDS011;52661;51.364;6.054;2023-03-01T16:37:05;10.30;;;4.40;;
65879;SDS011;52661;51.364;6.054;2023-03-01T16:39:30;9.33;;;3.53;;
65879;SDS011;52661;51.364;6.054;2023-03-01T16:41:55;9.23;;;3.90;;
65879;SDS011;52661;51.364;6.054;2023-03-01T16:44:21;10.97;;;4.23;;
65879;SDS011;52661;51.364;6.054;2023-03-01T16:46:46;11.30;;;4.27;;
65879;SDS011;52661;51.364;6.054;2023-03-01T16:49:11;10.48;;;4.60;;
65879;SDS011;52661;51.364;6.054;2023-03-01T16:51:37;9.35;;;4.30;;
65879;SDS011;52661;51.364;6.054;2023-03-01T16:54:02;11.33;;;4.53;;
65879;SDS011;52661;51.364;6.054;2023-03-01T16:56:29;8.43;;;3.83;;
65879;SDS011;52661;51.364;6.054;2023-03-01T16:58:56;9.68;;;4.22;;
65879;SDS011;52661;51.364;6.054;2023-03-01T17:01:21;11.63;;;4.53;;
65879;SDS011;52661;51.364;6.054;2023-03-01T17:03:49;10.63;;;4.85;;
65879;SDS011;52661;51.364;6.054;2023-03-01T17:06:16;9.80;;;3.50;;
65879;SDS011;52661;51.364;6.054;2023-03-01T17:08:45;9.55;;;3.95;;
65879;SDS011;52661;51.364;6.054;2023-03-01T17:11:15;10.10;;;4.35;;